Terminal Aerodrome Forecast
Issued by NWS Duluth, MN

Home | Current Version | Previous Version | Text Only | Print | Product List | Glossary On
Versions: 1 2 3 4 5 6 7 8 9 10 11 12 13 14 15 16 17
000
FTUS43 KDLH 032337
TAFDLH
TAF
KDLH 032337Z 0400/0424 01015G23KT P6SM SCT100
     FM040200 36010KT P6SM SKC
     FM041600 36011G19KT P6SM SKC=

USA.gov is the U.S. government's official web portal to all federal, state and local government web resources and services.